createdAt,value
2019-03-25T00:00:38.215Z,82.81
2019-03-25T00:03:04.176Z,82.65
2019-03-25T00:05:29.981Z,82.61
2019-03-25T00:07:55.758Z,83.27
2019-03-25T00:10:21.584Z,85.40
2019-03-25T00:12:47.367Z,85.40
2019-03-25T00:15:13.160Z,86.09
2019-03-25T00:17:39.035Z,86.70
2019-03-25T00:20:05.346Z,87.04
2019-03-25T00:22:31.148Z,87.42
2019-03-25T00:24:56.943Z,87.87
2019-03-25T00:27:22.727Z,88.04
2019-03-25T00:29:48.521Z,88.35
2019-03-25T00:32:14.348Z,88.69
2019-03-25T00:34:40.145Z,89.04
2019-03-25T00:37:05.930Z,89.24
2019-03-25T00:39:33.199Z,89.35
2019-03-25T00:41:58.996Z,89.40
2019-03-25T00:44:24.788Z,89.47
2019-03-25T00:46:50.574Z,89.36
2019-03-25T00:49:16.373Z,89.63
2019-03-25T00:51:42.154Z,89.88
2019-03-25T00:54:07.929Z,90.04
2019-03-25T00:56:33.740Z,89.94
2019-03-25T00:58:59.516Z,90.36
2019-03-25T01:01:25.316Z,90.25
2019-03-25T01:03:51.093Z,90.29
2019-03-25T01:06:16.993Z,90.32
2019-03-25T01:08:42.814Z,90.31
2019-03-25T01:11:08.606Z,90.25
2019-03-25T01:13:34.397Z,90.05
2019-03-25T01:16:00.188Z,90.14
2019-03-25T01:18:25.968Z,90.54
2019-03-25T01:20:51.754Z,91.15
2019-03-25T01:23:17.543Z,91.37
2019-03-25T01:25:43.337Z,91.50
2019-03-25T01:28:09.113Z,91.78
2019-03-25T01:30:34.912Z,91.82
2019-03-25T01:33:00.689Z,91.56
2019-03-25T01:35:26.496Z,92.01
2019-03-25T01:37:52.269Z,92.01
2019-03-25T01:40:18.080Z,92.26
2019-03-25T01:42:43.869Z,92.49
2019-03-25T01:45:09.848Z,90.93
2019-03-25T01:47:35.644Z,90.32
2019-03-25T01:50:01.418Z,90.64
2019-03-25T01:52:27.207Z,90.90
2019-03-25T01:54:52.975Z,91.09
2019-03-25T01:57:18.763Z,91.15
2019-03-25T01:59:44.540Z,91.23
2019-03-25T02:02:10.336Z,91.13
2019-03-25T02:04:36.114Z,91.38
2019-03-25T02:07:01.898Z,91.50
2019-03-25T02:09:27.682Z,91.48
2019-03-25T02:11:53.467Z,91.30
2019-03-25T02:14:19.244Z,91.45
2019-03-25T02:16:45.037Z,91.65
2019-03-25T02:19:10.843Z,91.32
2019-03-25T02:21:36.649Z,91.36
2019-03-25T02:24:02.428Z,91.35
2019-03-25T02:26:28.240Z,91.52
2019-03-25T02:28:54.020Z,91.51
2019-03-25T02:31:19.805Z,91.75
2019-03-25T02:33:45.587Z,91.47
2019-03-25T02:36:11.487Z,91.60
2019-03-25T02:38:37.227Z,91.54
2019-03-25T02:41:03.004Z,91.60
2019-03-25T02:43:28.790Z,91.54
2019-03-25T02:45:54.567Z,91.62
2019-03-25T02:48:20.357Z,91.44
2019-03-25T02:50:46.143Z,91.49
2019-03-25T02:53:11.928Z,91.58
2019-03-25T02:55:42.030Z,91.70
2019-03-25T02:58:05.400Z,92.26
2019-03-25T03:00:32.881Z,92.24
2019-03-25T03:02:58.679Z,91.85
2019-03-25T03:05:24.456Z,92.09
2019-03-25T03:07:50.258Z,92.16
2019-03-25T03:10:16.138Z,92.22
2019-03-25T03:12:41.931Z,92.64
2019-03-25T03:15:07.817Z,93.50
2019-03-25T03:17:33.597Z,93.50
2019-03-25T03:19:59.382Z,93.40
2019-03-25T03:22:25.183Z,93.41
2019-03-25T03:24:50.966Z,93.59
2019-03-25T03:27:16.744Z,93.46
2019-03-25T03:29:42.541Z,93.55
2019-03-25T03:32:08.326Z,93.31
2019-03-25T03:34:34.139Z,93.94
2019-03-25T03:36:59.900Z,94.36
2019-03-25T03:39:25.698Z,94.21
2019-03-25T03:41:51.477Z,94.01
2019-03-25T03:44:17.274Z,93.87
2019-03-25T03:46:43.349Z,94.01
2019-03-25T03:49:09.149Z,93.75
2019-03-25T03:51:34.929Z,93.61
2019-03-25T03:54:00.816Z,93.07
2019-03-25T03:56:26.992Z,93.53
2019-03-25T03:58:52.893Z,93.30
2019-03-25T04:01:18.677Z,94.30
2019-03-25T04:03:44.463Z,94.65
2019-03-25T04:06:10.247Z,95.26
2019-03-25T04:08:36.037Z,94.90
2019-03-25T04:11:01.823Z,94.90
2019-03-25T04:13:27.613Z,94.57
2019-03-25T04:15:53.394Z,94.81
2019-03-25T04:18:19.173Z,94.17
2019-03-25T04:20:44.968Z,94.21
2019-03-25T04:23:10.773Z,94.75
2019-03-25T04:25:36.560Z,94.72
2019-03-25T04:28:02.336Z,94.31
2019-03-25T04:30:28.124Z,94.49
2019-03-25T04:32:53.900Z,94.59
2019-03-25T04:35:19.699Z,94.45
2019-03-25T04:37:45.481Z,94.86
2019-03-25T04:40:11.468Z,94.76
2019-03-25T04:42:37.247Z,94.58
2019-03-25T04:45:05.649Z,94.50
2019-03-25T04:47:31.419Z,94.37
2019-03-25T04:49:57.215Z,94.15
2019-03-25T04:52:22.991Z,94.03
2019-03-25T04:54:48.779Z,94.09
2019-03-25T04:57:14.562Z,94.02
2019-03-25T04:59:40.338Z,94.33
2019-03-25T05:02:06.143Z,94.72
2019-03-25T05:04:31.912Z,94.34
2019-03-25T05:06:57.700Z,94.37
2019-03-25T05:09:23.479Z,94.45
2019-03-25T05:11:49.276Z,94.55
2019-03-25T05:14:15.064Z,94.32
2019-03-25T05:16:40.851Z,94.16
2019-03-25T05:19:06.742Z,94.15
2019-03-25T05:21:32.544Z,94.29
2019-03-25T05:23:58.325Z,94.31
2019-03-25T05:26:24.111Z,93.99
2019-03-25T05:28:49.897Z,94.04
2019-03-25T05:31:15.691Z,94.41
2019-03-25T05:33:41.469Z,94.18
2019-03-25T05:36:07.264Z,93.84
2019-03-25T05:38:33.041Z,94.00
2019-03-25T05:40:58.838Z,94.14
2019-03-25T05:43:24.613Z,94.05
2019-03-25T05:45:50.409Z,93.56
2019-03-25T05:48:16.195Z,93.56
2019-03-25T05:50:41.976Z,93.87
2019-03-25T05:53:07.765Z,93.72
2019-03-25T05:55:33.547Z,94.18
2019-03-25T05:57:59.337Z,94.19
2019-03-25T06:00:27.019Z,93.97
2019-03-25T06:02:52.821Z,93.99
2019-03-25T06:05:18.599Z,94.06
2019-03-25T06:07:44.396Z,94.10
2019-03-25T06:10:10.481Z,94.34
2019-03-25T06:12:36.285Z,94.79
2019-03-25T06:15:03.767Z,94.38
2019-03-25T06:17:29.566Z,93.95
2019-03-25T06:19:55.339Z,93.81
2019-03-25T06:22:21.154Z,94.32
2019-03-25T06:24:46.922Z,94.56
2019-03-25T06:27:14.421Z,94.62
2019-03-25T06:29:40.398Z,94.19
2019-03-25T06:32:06.190Z,93.61
2019-03-25T06:34:31.969Z,93.88
2019-03-25T06:36:57.743Z,93.86
2019-03-25T06:39:23.544Z,93.59
2019-03-25T06:41:49.327Z,93.43
2019-03-25T06:44:15.131Z,93.29
2019-03-25T06:46:40.910Z,93.42
2019-03-25T06:49:06.730Z,93.50
2019-03-25T06:51:32.521Z,93.55
2019-03-25T06:53:58.313Z,94.43
2019-03-25T06:56:24.091Z,94.43
2019-03-25T06:58:49.892Z,94.38
2019-03-25T07:01:15.674Z,93.86
2019-03-25T07:03:41.466Z,93.39
2019-03-25T07:06:07.248Z,93.84
2019-03-25T07:08:33.051Z,93.69
2019-03-25T07:10:58.830Z,94.22
2019-03-25T07:13:24.731Z,93.26
2019-03-25T07:15:50.512Z,91.79
2019-03-25T07:18:16.299Z,92.47
2019-03-25T07:20:42.179Z,92.62
2019-03-25T07:23:07.992Z,91.96
2019-03-25T07:25:33.774Z,91.43
2019-03-25T07:27:59.574Z,91.26
2019-03-25T07:30:25.346Z,91.36
2019-03-25T07:32:51.136Z,90.69
2019-03-25T07:35:16.908Z,91.51
2019-03-25T07:37:42.700Z,90.48
2019-03-25T07:40:09.392Z,90.27
2019-03-25T07:42:35.390Z,89.83
2019-03-25T07:45:03.388Z,89.65
2019-03-25T07:47:29.166Z,88.89
2019-03-25T07:49:54.960Z,87.79
2019-03-25T07:52:20.735Z,87.19
2019-03-25T07:54:46.523Z,85.23
2019-03-25T07:57:12.334Z,83.92
2019-03-25T07:59:38.132Z,83.92
2019-03-25T08:02:03.909Z,84.47
2019-03-25T08:04:29.698Z,85.28
2019-03-25T08:06:55.481Z,85.18
2019-03-25T08:09:21.275Z,87.11
2019-03-25T08:11:47.059Z,87.51
2019-03-25T08:14:12.831Z,89.29
2019-03-25T08:16:38.613Z,89.95
2019-03-25T08:19:04.419Z,90.43
2019-03-25T08:21:30.195Z,90.13
2019-03-25T08:23:56.012Z,90.62
2019-03-25T08:26:21.786Z,90.83
2019-03-25T08:28:47.592Z,91.02
2019-03-25T08:31:13.369Z,90.99
2019-03-25T08:33:39.161Z,91.15
2019-03-25T08:36:04.938Z,90.94
2019-03-25T08:38:30.865Z,90.90
2019-03-25T08:40:56.642Z,90.98
2019-03-25T08:43:22.431Z,90.58
2019-03-25T08:45:48.222Z,90.76
2019-03-25T08:48:13.996Z,90.20
2019-03-25T08:50:39.811Z,90.55
2019-03-25T08:53:05.690Z,90.81
2019-03-25T08:55:31.490Z,90.32
2019-03-25T08:57:57.263Z,90.80
2019-03-25T09:00:23.062Z,90.78
2019-03-25T09:02:48.838Z,90.74
2019-03-25T09:05:14.839Z,89.91
2019-03-25T09:07:40.626Z,90.21
2019-03-25T09:10:07.428Z,89.69
2019-03-25T09:12:33.211Z,87.92
2019-03-25T09:14:59.004Z,87.67
2019-03-25T09:17:24.782Z,87.31
2019-03-25T09:19:50.571Z,87.07
2019-03-25T09:22:16.352Z,86.34
2019-03-25T09:24:42.168Z,84.62
2019-03-25T09:27:07.948Z,86.04
2019-03-25T09:29:33.762Z,85.30
2019-03-25T09:31:59.545Z,82.72
2019-03-25T09:34:25.341Z,79.93
2019-03-25T09:36:51.119Z,79.52
2019-03-25T09:39:16.896Z,79.45
2019-03-25T09:41:42.687Z,78.02
2019-03-25T09:44:08.464Z,78.62
2019-03-25T09:46:34.267Z,79.65
2019-03-25T09:49:00.051Z,78.01
2019-03-25T09:51:25.840Z,79.68
2019-03-25T09:53:51.617Z,79.47
2019-03-25T09:56:17.411Z,77.64
2019-03-25T09:58:43.290Z,77.31
2019-03-25T10:01:09.081Z,78.82
2019-03-25T10:03:34.867Z,76.67
2019-03-25T10:06:00.672Z,76.23
2019-03-25T10:08:26.454Z,73.40
2019-03-25T10:10:52.259Z,73.05
2019-03-25T10:13:18.040Z,72.94
2019-03-25T10:15:43.826Z,71.59
2019-03-25T10:18:09.604Z,71.47
2019-03-25T10:20:35.421Z,70.65
2019-03-25T10:23:01.207Z,70.55
2019-03-25T10:25:26.997Z,72.29
2019-03-25T10:27:52.796Z,70.61
2019-03-25T10:30:18.950Z,72.64
2019-03-25T10:32:44.743Z,71.70
2019-03-25T10:35:10.621Z,72.41
2019-03-25T10:37:36.406Z,74.33
2019-03-25T10:40:03.697Z,75.11
2019-03-25T10:42:29.490Z,75.63
2019-03-25T10:44:55.268Z,73.74
2019-03-25T10:47:21.059Z,70.67
2019-03-25T10:49:46.839Z,70.36
2019-03-25T10:52:12.629Z,68.35
2019-03-25T10:54:38.521Z,65.96
2019-03-25T10:57:04.625Z,64.28
2019-03-25T10:59:30.416Z,62.52
2019-03-25T11:01:56.215Z,63.14
2019-03-25T11:04:21.996Z,63.02
2019-03-25T11:06:47.787Z,67.08
2019-03-25T11:09:13.582Z,71.91
2019-03-25T11:11:39.372Z,73.44
2019-03-25T11:14:05.162Z,74.85
2019-03-25T11:16:30.943Z,75.85
2019-03-25T11:18:56.737Z,79.17
2019-03-25T11:21:22.507Z,81.34
2019-03-25T11:23:48.310Z,84.19
2019-03-25T11:26:14.096Z,84.97
2019-03-25T11:28:39.888Z,87.02
2019-03-25T11:31:05.666Z,87.86
2019-03-25T11:33:31.471Z,87.42
2019-03-25T11:35:57.248Z,88.80
2019-03-25T11:38:23.061Z,87.62
2019-03-25T11:40:48.836Z,86.24
2019-03-25T11:43:14.634Z,84.32
2019-03-25T11:45:40.423Z,82.79
2019-03-25T11:48:06.212Z,80.25
2019-03-25T11:50:31.988Z,79.13
2019-03-25T11:52:57.783Z,79.24
2019-03-25T11:55:23.561Z,77.43
2019-03-25T11:57:49.359Z,77.71
2019-03-25T12:00:15.236Z,81.14
2019-03-25T12:02:41.033Z,81.17
2019-03-25T12:05:07.010Z,85.20
2019-03-25T12:07:32.947Z,86.37
2019-03-25T12:09:58.760Z,87.65
2019-03-25T12:12:24.544Z,88.31
2019-03-25T12:14:50.342Z,89.42
2019-03-25T12:17:16.124Z,89.90
2019-03-25T12:19:41.925Z,89.40
2019-03-25T12:22:07.706Z,90.12
2019-03-25T12:24:33.515Z,89.20
2019-03-25T12:26:59.301Z,87.35
2019-03-25T12:29:30.054Z,86.93
2019-03-25T12:31:52.767Z,86.65
2019-03-25T12:34:18.609Z,85.48
2019-03-25T12:36:44.430Z,84.91
2019-03-25T12:39:10.240Z,85.62
2019-03-25T12:41:36.021Z,83.77
2019-03-25T12:44:01.818Z,84.13
2019-03-25T12:46:27.603Z,82.22
2019-03-25T12:48:53.400Z,82.84
2019-03-25T12:51:19.180Z,81.33
2019-03-25T12:53:44.985Z,81.21
2019-03-25T12:56:10.761Z,80.48
2019-03-25T12:58:36.538Z,79.19
2019-03-25T13:01:02.345Z,78.06
2019-03-25T13:03:28.122Z,77.40
2019-03-25T13:05:53.941Z,75.96
2019-03-25T13:08:19.722Z,73.87
2019-03-25T13:10:45.522Z,72.80
2019-03-25T13:13:11.295Z,76.02
2019-03-25T13:15:37.494Z,73.70
2019-03-25T13:18:03.386Z,74.23
2019-03-25T13:20:29.188Z,74.23
2019-03-25T13:22:54.992Z,74.54
2019-03-25T13:25:20.804Z,71.77
2019-03-25T13:27:46.579Z,71.44
2019-03-25T13:30:12.772Z,68.33
2019-03-25T13:32:38.560Z,67.31
2019-03-25T13:35:07.558Z,68.27
2019-03-25T13:37:33.433Z,67.96
2019-03-25T13:39:59.228Z,65.95
2019-03-25T13:42:25.004Z,62.41
2019-03-25T13:44:50.787Z,61.25
2019-03-25T13:47:16.576Z,62.90
2019-03-25T13:49:42.512Z,60.59
2019-03-25T13:52:08.305Z,58.04
2019-03-25T13:54:34.084Z,59.37
2019-03-25T13:56:59.912Z,61.97
2019-03-25T13:59:27.516Z,61.34
2019-03-25T14:01:53.391Z,61.06
2019-03-25T14:04:19.170Z,61.73
2019-03-25T14:06:44.983Z,62.15
2019-03-25T14:09:10.765Z,62.46
2019-03-25T14:11:36.619Z,62.71
2019-03-25T14:14:02.448Z,63.06
2019-03-25T14:16:28.253Z,63.90
2019-03-25T14:18:54.035Z,63.68
2019-03-25T14:21:19.901Z,64.09
2019-03-25T14:23:45.705Z,62.51
2019-03-25T14:26:11.481Z,62.86
2019-03-25T14:28:37.281Z,63.88
2019-03-25T14:31:03.267Z,63.98
2019-03-25T14:33:29.054Z,64.46
2019-03-25T14:35:54.844Z,64.21
2019-03-25T14:38:20.635Z,64.90
2019-03-25T14:40:46.415Z,65.14
2019-03-25T14:43:12.197Z,63.73
2019-03-25T14:45:37.976Z,64.64
2019-03-25T14:48:03.771Z,65.02
2019-03-25T14:50:29.562Z,64.68
2019-03-25T14:52:55.360Z,64.18
2019-03-25T14:55:21.141Z,65.29
2019-03-25T14:57:46.935Z,64.73
2019-03-25T15:00:12.829Z,63.90
2019-03-25T15:02:38.631Z,63.90
2019-03-25T15:05:05.407Z,63.47
2019-03-25T15:07:31.213Z,63.84
2019-03-25T15:09:56.990Z,64.79
2019-03-25T15:12:22.790Z,65.65
2019-03-25T15:14:48.559Z,66.65
2019-03-25T15:17:14.352Z,66.28
2019-03-25T15:19:40.146Z,65.68
2019-03-25T15:22:05.931Z,64.96
2019-03-25T15:24:31.740Z,63.19
2019-03-25T15:26:57.613Z,63.77
2019-03-25T15:29:23.413Z,63.06
2019-03-25T15:31:49.191Z,64.19
2019-03-25T15:34:14.993Z,64.38
2019-03-25T15:36:40.770Z,63.07
2019-03-25T15:39:07.120Z,63.94
2019-03-25T15:41:32.909Z,64.21
2019-03-25T15:43:58.710Z,64.00
2019-03-25T15:46:24.493Z,64.55
2019-03-25T15:48:50.287Z,64.82
2019-03-25T15:51:16.081Z,65.27
2019-03-25T15:53:41.880Z,65.27
2019-03-25T15:56:07.661Z,65.74
2019-03-25T15:58:33.453Z,65.76
2019-03-25T16:00:59.243Z,66.35
2019-03-25T16:03:25.050Z,67.09
2019-03-25T16:05:50.825Z,67.21
2019-03-25T16:08:16.613Z,67.60
2019-03-25T16:10:42.420Z,67.48
2019-03-25T16:13:08.268Z,67.29
2019-03-25T16:15:36.899Z,67.36
2019-03-25T16:18:04.687Z,67.90
2019-03-25T16:20:30.482Z,68.65
2019-03-25T16:22:56.269Z,68.73
2019-03-25T16:25:25.717Z,67.48
2019-03-25T16:27:51.511Z,68.57
2019-03-25T16:30:17.302Z,68.57
2019-03-25T16:32:43.094Z,68.01
2019-03-25T16:35:11.444Z,67.67
2019-03-25T16:37:36.580Z,67.83
2019-03-25T16:40:05.040Z,67.93
2019-03-25T16:42:30.819Z,68.04
2019-03-25T16:44:56.609Z,68.06
2019-03-25T16:47:22.402Z,68.03
2019-03-25T16:49:48.196Z,67.57
2019-03-25T16:52:13.975Z,67.91
2019-03-25T16:54:39.781Z,68.56
2019-03-25T16:57:05.551Z,68.96
2019-03-25T16:59:31.387Z,69.85
2019-03-25T17:01:57.176Z,70.52
2019-03-25T17:04:22.969Z,71.03
2019-03-25T17:06:48.748Z,71.33
2019-03-25T17:09:14.528Z,71.76
2019-03-25T17:11:40.321Z,72.20
2019-03-25T17:14:06.101Z,72.19
2019-03-25T17:16:31.900Z,72.65
2019-03-25T17:18:57.677Z,72.92
2019-03-25T17:21:23.478Z,73.41
2019-03-25T17:23:49.273Z,73.68
2019-03-25T17:26:15.066Z,73.83
2019-03-25T17:28:40.843Z,74.19
2019-03-25T17:31:06.634Z,74.49
2019-03-25T17:33:32.420Z,74.41
2019-03-25T17:35:58.223Z,74.49
2019-03-25T17:38:24.107Z,74.80
2019-03-25T17:40:49.902Z,74.99
2019-03-25T17:43:15.685Z,75.26
2019-03-25T17:45:41.488Z,75.59
2019-03-25T17:48:07.385Z,75.64
2019-03-25T17:50:33.168Z,75.94
2019-03-25T17:52:58.949Z,76.24
2019-03-25T17:55:24.750Z,76.56
2019-03-25T17:57:50.531Z,76.73
2019-03-25T18:00:20.163Z,77.20
2019-03-25T18:02:45.932Z,77.56
2019-03-25T18:05:11.822Z,77.34
2019-03-25T18:07:37.620Z,77.71
2019-03-25T18:10:05.496Z,77.89
2019-03-25T18:12:38.851Z,77.78
2019-03-25T18:14:58.978Z,77.98
2019-03-25T18:17:24.768Z,78.17
2019-03-25T18:19:50.543Z,78.38
2019-03-25T18:22:16.342Z,78.64
2019-03-25T18:24:42.145Z,78.94
2019-03-25T18:27:07.931Z,79.49
2019-03-25T18:29:33.711Z,79.21
2019-03-25T18:31:59.514Z,79.27
2019-03-25T18:34:25.293Z,79.60
2019-03-25T18:36:51.086Z,79.76
2019-03-25T18:39:16.868Z,79.38
2019-03-25T18:41:42.677Z,79.43
2019-03-25T18:44:08.455Z,79.68
2019-03-25T18:46:34.323Z,80.19
2019-03-25T18:49:00.101Z,80.24
2019-03-25T18:51:25.893Z,80.36
2019-03-25T18:53:51.779Z,80.55
2019-03-25T18:56:17.556Z,80.39
2019-03-25T18:58:43.446Z,81.28
2019-03-25T19:01:09.309Z,81.93
2019-03-25T19:03:35.217Z,82.14
2019-03-25T19:06:01.152Z,83.09
2019-03-25T19:08:28.190Z,83.07
2019-03-25T19:10:54.095Z,83.21
2019-03-25T19:13:19.857Z,83.18
2019-03-25T19:15:45.653Z,83.11
2019-03-25T19:18:11.452Z,83.04
2019-03-25T19:20:37.254Z,82.92
2019-03-25T19:23:03.039Z,82.21
2019-03-25T19:25:28.834Z,81.60
2019-03-25T19:27:54.637Z,81.83
2019-03-25T19:30:20.405Z,81.97
2019-03-25T19:32:46.221Z,82.02
2019-03-25T19:35:12.291Z,82.02
2019-03-25T19:37:38.088Z,82.35
2019-03-25T19:40:05.182Z,82.46
2019-03-25T19:42:30.971Z,82.41
2019-03-25T19:44:56.755Z,82.72
2019-03-25T19:47:22.534Z,82.39
2019-03-25T19:49:48.535Z,82.36
2019-03-25T19:52:14.325Z,82.62
2019-03-25T19:54:40.120Z,82.71
2019-03-25T19:57:05.950Z,82.78
2019-03-25T19:59:31.772Z,82.74
2019-03-25T20:01:57.616Z,82.85
2019-03-25T20:04:23.470Z,83.18
2019-03-25T20:06:49.273Z,83.37
2019-03-25T20:09:15.028Z,83.27
2019-03-25T20:11:40.889Z,82.84
2019-03-25T20:14:06.722Z,83.22
2019-03-25T20:16:32.496Z,83.45
2019-03-25T20:18:58.301Z,83.33
2019-03-25T20:21:24.132Z,83.03
2019-03-25T20:23:50.633Z,83.31
2019-03-25T20:26:16.707Z,83.13
2019-03-25T20:28:42.460Z,83.79
2019-03-25T20:31:08.295Z,83.58
2019-03-25T20:33:34.017Z,84.84
2019-03-25T20:35:59.820Z,84.84
2019-03-25T20:38:25.633Z,84.58
2019-03-25T20:40:51.383Z,84.59
2019-03-25T20:43:17.184Z,85.28
2019-03-25T20:45:42.957Z,85.97
2019-03-25T20:48:08.718Z,85.71
2019-03-25T20:50:34.519Z,85.38
2019-03-25T20:53:00.329Z,84.51
2019-03-25T20:55:26.090Z,84.98
2019-03-25T20:57:51.868Z,84.75
2019-03-25T21:00:21.460Z,84.86
2019-03-25T21:02:47.254Z,84.90
2019-03-25T21:05:13.079Z,85.73
2019-03-25T21:07:38.824Z,85.66
2019-03-25T21:10:05.603Z,85.30
2019-03-25T21:12:31.390Z,85.51
2019-03-25T21:14:57.189Z,85.30
2019-03-25T21:17:22.990Z,85.49
2019-03-25T21:19:48.793Z,85.46
2019-03-25T21:22:14.563Z,85.28
2019-03-25T21:24:40.436Z,85.04
2019-03-25T21:27:06.289Z,85.11
2019-03-25T21:29:32.092Z,85.43
2019-03-25T21:31:57.916Z,85.71
2019-03-25T21:34:23.755Z,85.62
2019-03-25T21:36:49.594Z,85.75
2019-03-25T21:39:15.486Z,85.75
2019-03-25T21:41:41.262Z,86.12
2019-03-25T21:44:07.099Z,86.37
2019-03-25T21:46:32.947Z,86.82
2019-03-25T21:48:58.717Z,87.39
2019-03-25T21:51:24.534Z,87.21
2019-03-25T21:53:53.017Z,88.03
2019-03-25T21:56:18.010Z,88.65
2019-03-25T21:58:43.799Z,88.69
2019-03-25T22:01:09.591Z,88.76
2019-03-25T22:03:35.377Z,88.89
2019-03-25T22:06:01.174Z,88.51
2019-03-25T22:08:26.959Z,88.80
2019-03-25T22:10:52.748Z,88.72
2019-03-25T22:13:18.535Z,89.41
2019-03-25T22:15:44.327Z,89.04
2019-03-25T22:18:10.107Z,88.97
2019-03-25T22:20:35.939Z,89.05
2019-03-25T22:23:01.733Z,89.63
2019-03-25T22:25:27.512Z,89.36
2019-03-25T22:27:53.308Z,89.84
2019-03-25T22:30:19.088Z,89.90
2019-03-25T22:32:44.877Z,89.72
2019-03-25T22:35:10.670Z,90.12
2019-03-25T22:37:36.460Z,90.06
2019-03-25T22:40:04.926Z,90.21
2019-03-25T22:42:30.740Z,90.19
2019-03-25T22:44:56.516Z,90.35
2019-03-25T22:47:22.318Z,90.32
2019-03-25T22:49:48.101Z,90.37
2019-03-25T22:52:13.890Z,90.41
2019-03-25T22:54:39.673Z,90.24
2019-03-25T22:57:05.466Z,90.31
2019-03-25T22:59:31.248Z,90.39
2019-03-25T23:01:57.034Z,90.50
2019-03-25T23:04:22.805Z,90.35
2019-03-25T23:06:48.611Z,90.25
2019-03-25T23:09:15.216Z,90.09
2019-03-25T23:11:40.999Z,90.37
2019-03-25T23:14:06.975Z,90.59
2019-03-25T23:16:32.772Z,90.08
2019-03-25T23:18:58.570Z,90.30
2019-03-25T23:21:24.363Z,90.13
2019-03-25T23:23:50.153Z,90.47
2019-03-25T23:26:16.248Z,90.64
2019-03-25T23:28:42.048Z,90.94
2019-03-25T23:31:07.840Z,90.84
2019-03-25T23:33:33.633Z,91.08
2019-03-25T23:35:59.416Z,91.12
2019-03-25T23:38:25.216Z,90.87
2019-03-25T23:40:51.006Z,90.89
2019-03-25T23:43:16.809Z,90.89
2019-03-25T23:45:42.637Z,90.72
2019-03-25T23:48:08.541Z,90.96
2019-03-25T23:50:34.328Z,90.74
2019-03-25T23:53:00.124Z,90.72
2019-03-25T23:55:25.914Z,90.83
2019-03-25T23:57:51.711Z,90.48
